TAF KACY
KACY 072322Z 0800/0824 VRB03KT P6SM OVC200 FM081100 00000KT P6SM OVC100 FM081500 09005KT P6SM OVC060 FM081800 18005KT P6SM OVC045 FM082100 30005KT P6SM OVC045=
METAR KACY
WC KACY
WS KACY
WV KACY